Time;durP1;ratioP1;P1;durP2;ratioP2;P2;SDS_P1;SDS_P2;PMS_P1;PMS_P2;Temp;Humidity;BMP_temperature;BMP_pressure;BME280_temperature;BME280_humidity;BME280_pressure;Samples;Min_cycle;Max_cycle;Signal;HPM_P1;HPM_P2
2021/06/03 00:01:54;;;;;;;2.13;1.38;;;;;;;24.84;47.10;101571.47;5013648;28;20026;-87
2021/06/03 00:04:21;;;;;;;0.10;0.10;;;;;;;24.73;47.30;101574.06;5014016;28;20057;-87
2021/06/03 00:06:48;;;;;;;0.20;0.20;;;;;;;24.79;47.01;101573.63;5013710;28;20056;-87
2021/06/03 00:09:15;;;;;;;0.00;0.00;;;;;;;24.63;47.41;101572.94;5013985;28;20120;-87
2021/06/03 00:11:42;;;;;;;0.00;0.00;;;;;;;24.78;47.21;101569.19;5012316;28;20080;-87
2021/06/03 00:14:09;;;;;;;0.50;0.50;;;;;;;24.75;47.13;101573.94;5013761;28;20050;-87
2021/06/03 00:16:35;;;;;;;0.13;0.13;;;;;;;24.73;47.57;101565.94;5013603;28;20034;-87
2021/06/03 00:19:07;;;;;;;0.00;0.00;;;;;;;24.75;47.33;101565.81;5013384;28;20057;-87
2021/06/03 00:21:35;;;;;;;0.65;0.65;;;;;;;24.67;47.22;101561.81;5013630;28;20412;-87
2021/06/03 00:24:03;;;;;;;10.85;0.68;;;;;;;24.68;47.06;101557.25;5013198;28;20033;-88
2021/06/03 00:26:29;;;;;;;0.00;0.00;;;;;;;24.72;46.75;101558.78;5013717;28;20030;-87
2021/06/03 00:28:56;;;;;;;0.10;0.10;;;;;;;24.61;47.01;101555.91;5013513;28;20057;-87
2021/06/03 00:31:22;;;;;;;0.15;0.15;;;;;;;24.57;46.93;101548.97;5013108;28;20060;-88
2021/06/03 00:33:49;;;;;;;0.00;0.00;;;;;;;24.58;47.01;101556.13;5013305;28;20101;-87
2021/06/03 00:36:16;;;;;;;0.03;0.03;;;;;;;24.58;46.87;101570.53;4999662;28;20034;-87
2021/06/03 00:38:43;;;;;;;0.00;0.00;;;;;;;24.66;47.00;101575.44;5013517;28;20424;-87
2021/06/03 00:41:10;;;;;;;0.08;0.08;;;;;;;24.52;46.83;101569.13;5014210;28;20026;-87
2021/06/03 00:43:37;;;;;;;0.63;0.63;;;;;;;24.50;46.98;101579.19;5014726;28;20030;-87
2021/06/03 00:46:05;;;;;;;0.10;0.10;;;;;;;24.54;46.87;101577.13;5012998;28;20057;-87
2021/06/03 00:48:33;;;;;;;0.20;0.20;;;;;;;24.58;46.92;101562.41;5013557;28;20022;-87
2021/06/03 00:51:01;;;;;;;0.63;0.63;;;;;;;24.61;46.73;101561.31;5013011;28;20301;-87
2021/06/03 00:53:30;;;;;;;0.00;0.00;;;;;;;24.68;46.44;101560.81;5012690;28;20026;-87
2021/06/03 00:55:58;;;;;;;0.10;0.10;;;;;;;24.71;46.60;101562.44;5012464;28;20025;-87
2021/06/03 00:58:26;;;;;;;0.95;0.95;;;;;;;24.75;46.58;101560.41;5012788;28;20026;-87
2021/06/03 01:00:54;;;;;;;0.00;0.00;;;;;;;24.79;46.58;101565.50;5013549;28;20503;-87
2021/06/03 01:03:22;;;;;;;0.10;0.10;;;;;;;24.78;46.66;101562.91;5012906;28;20068;-87
2021/06/03 01:05:54;;;;;;;0.10;0.10;;;;;;;24.80;46.47;101560.94;5012908;28;20037;-86
2021/06/03 01:08:26;;;;;;;0.20;0.20;;;;;;;24.84;46.27;101554.38;5012918;28;20467;-87
2021/06/03 01:16:42;;;;;;;0.00;0.00;;;;;;;24.66;46.89;101573.63;5089159;27;20144;-88
2021/06/03 01:19:15;;;;;;;0.10;0.10;;;;;;;24.76;46.88;101582.00;5069339;28;20025;-88
2021/06/03 01:24:32;;;;;;;0.00;0.00;;;;;;;24.69;47.33;101597.78;5084781;27;20518;-88
2021/06/03 01:27:04;;;;;;;0.25;0.25;;;;;;;24.69;47.78;101618.63;5061267;28;20034;-88
2021/06/03 01:29:42;;;;;;;0.15;0.15;;;;;;;24.77;47.72;101620.78;5046345;28;20117;-89
2021/06/03 01:32:09;;;;;;;0.10;0.10;;;;;;;24.65;48.28;101627.91;5052003;28;20063;-89
2021/06/03 01:34:37;;;;;;;0.08;0.08;;;;;;;24.65;48.08;101625.19;5055927;28;20032;-88
2021/06/03 01:37:05;;;;;;;0.10;0.10;;;;;;;24.58;48.68;101642.81;5063691;28;20085;-89
2021/06/03 01:39:33;;;;;;;0.25;0.25;;;;;;;24.47;49.27;101660.63;5049219;28;20034;-89
2021/06/03 01:42:00;;;;;;;0.10;0.10;;;;;;;24.40;49.71;101664.75;5042246;28;20047;-88
2021/06/03 01:44:27;;;;;;;0.00;0.00;;;;;;;24.20;50.58;101672.31;5054038;28;20029;-88
2021/06/03 01:46:55;;;;;;;0.10;0.10;;;;;;;24.17;50.90;101672.50;5066508;28;20037;-88
2021/06/03 01:49:23;;;;;;;0.00;0.00;;;;;;;24.19;50.94;101667.88;5058951;28;20068;-89
2021/06/03 01:51:51;;;;;;;0.00;0.00;;;;;;;24.13;51.06;101665.56;5055641;28;20087;-88
2021/06/03 01:54:18;;;;;;;0.88;0.85;;;;;;;24.08;51.57;101678.53;5050425;28;20049;-88
2021/06/03 01:56:47;;;;;;;0.00;0.00;;;;;;;24.02;51.47;101678.91;5046348;28;20057;-88
2021/06/03 01:59:13;;;;;;;1.85;1.45;;;;;;;24.00;51.57;101680.84;5063213;28;20116;-88
2021/06/03 02:01:40;;;;;;;0.68;0.68;;;;;;;24.04;51.60;101680.56;5056517;28;20022;-88
2021/06/03 02:04:06;;;;;;;0.30;0.20;;;;;;;24.00;51.73;101676.31;5045548;28;20033;-88
2021/06/03 02:06:33;;;;;;;0.95;0.93;;;;;;;24.01;51.77;101682.59;5049083;28;20472;-88
2021/06/03 02:08:59;;;;;;;0.20;0.20;;;;;;;24.01;52.07;101679.88;5058611;28;20079;-88
2021/06/03 02:11:26;;;;;;;0.75;0.73;;;;;;;24.03;51.97;101688.78;5055508;28;20682;-88
2021/06/03 02:14:00;;;;;;;0.17;0.17;;;;;;;24.06;51.60;101686.75;5057046;28;20025;-87
2021/06/03 02:19:13;;;;;;;0.00;0.00;;;;;;;23.93;52.11;101672.25;5072550;27;20192;-88
2021/06/03 02:21:41;;;;;;;;;;;;;;;24.10;51.44;101684.72;5071307;28;20044;-88
2021/06/03 02:24:09;;;;;;;0.20;0.20;;;;;;;23.96;51.95;101684.72;5085924;28;19913;-89
2021/06/03 02:26:39;;;;;;;0.05;0.05;;;;;;;23.97;52.00;101681.91;5081163;28;20487;-86
2021/06/03 02:29:06;;;;;;;0.00;0.00;;;;;;;23.98;52.09;101688.22;5069028;28;20029;-85
2021/06/03 02:31:34;;;;;;;0.00;0.00;;;;;;;23.99;52.23;101687.22;5072458;28;20065;-88
2021/06/03 02:34:01;;;;;;;0.30;0.30;;;;;;;24.00;51.89;101686.25;5071201;28;20028;-89
2021/06/03 02:36:29;;;;;;;0.30;0.30;;;;;;;23.97;52.41;101684.59;5084739;28;20545;-89
2021/06/03 02:38:56;;;;;;;0.10;0.10;;;;;;;23.97;52.25;101681.91;5079331;28;20857;-89
2021/06/03 02:41:24;;;;;;;0.00;0.00;;;;;;;23.99;51.93;101687.22;5073616;28;20461;-88
2021/06/03 02:43:51;;;;;;;0.10;0.10;;;;;;;23.96;52.24;101688.28;5071735;28;20025;-88
2021/06/03 02:46:20;;;;;;;0.10;0.10;;;;;;;23.92;52.97;101683.19;5086725;28;20027;-88
2021/06/03 02:48:47;;;;;;;0.00;0.00;;;;;;;23.88;52.53;101688.75;5084098;28;20036;-90
2021/06/03 02:51:14;;;;;;;0.22;0.22;;;;;;;23.84;52.51;101692.63;5075344;28;20070;-88
2021/06/03 02:53:41;;;;;;;0.00;0.00;;;;;;;23.82;52.82;101694.53;5072865;28;20071;-85
2021/06/03 02:56:08;;;;;;;0.10;0.10;;;;;;;23.75;52.94;101687.75;5075727;22;20070;-86
2021/06/03 02:58:34;;;;;;;0.00;0.00;;;;;;;23.70;52.32;101684.47;5055483;28;20376;-85
2021/06/03 03:01:01;;;;;;;3.10;0.52;;;;;;;23.67;52.33;101685.53;5057045;28;20025;-88
2021/06/03 03:03:27;;;;;;;0.05;0.05;;;;;;;23.58;52.36;101686.13;5053997;28;20475;-86
2021/06/03 03:05:54;;;;;;;0.00;0.00;;;;;;;23.59;52.33;101696.84;5059661;28;20099;-86
2021/06/03 03:08:20;;;;;;;0.10;0.10;;;;;;;23.55;52.26;101697.13;5059633;28;20029;-84
2021/06/03 03:10:53;;;;;;;0.00;0.00;;;;;;;23.57;52.42;101701.47;5050938;28;20033;-87
2021/06/03 03:13:20;;;;;;;0.00;0.00;;;;;;;23.51;52.17;101696.44;5048641;28;20029;-86
2021/06/03 03:15:49;;;;;;;0.15;0.15;;;;;;;23.49;52.06;101705.59;5059920;28;20025;-87
2021/06/03 03:18:15;;;;;;;0.25;0.25;;;;;;;23.44;52.49;101703.22;5060799;28;20025;-87
2021/06/03 03:20:42;;;;;;;0.05;0.05;;;;;;;23.42;52.12;101711.38;5055135;28;20440;-87
2021/06/03 03:23:11;;;;;;;0.15;0.15;;;;;;;23.36;52.79;101711.75;5050001;28;20028;-86
2021/06/03 03:25:39;;;;;;;0.03;0.03;;;;;;;23.34;52.54;101696.59;5061847;28;20032;-87
2021/06/03 03:28:06;;;;;;;0.08;0.08;;;;;;;23.32;52.35;101707.50;5061510;28;20499;-87
2021/06/03 03:30:40;;;;;;;0.00;0.00;;;;;;;23.32;52.10;101712.06;5046426;28;20547;-87
2021/06/03 03:33:08;;;;;;;0.00;0.00;;;;;;;23.26;52.43;101708.75;5029991;28;20464;-86
2021/06/03 03:35:35;;;;;;;0.20;0.20;;;;;;;23.24;52.33;101707.09;5035159;28;20053;-87
2021/06/03 03:38:02;;;;;;;0.10;0.10;;;;;;;23.18;52.47;101711.03;5048373;28;20029;-87
2021/06/03 03:40:28;;;;;;;0.00;0.00;;;;;;;23.12;52.87;101716.78;5048951;28;20064;-87
2021/06/03 03:42:55;;;;;;;0.22;0.22;;;;;;;23.10;52.64;101721.41;5041292;28;20033;-87
2021/06/03 03:45:23;;;;;;;0.10;0.10;;;;;;;23.07;52.70;101718.91;5037995;28;20032;-88
2021/06/03 03:47:50;;;;;;;0.00;0.00;;;;;;;23.00;53.74;101723.75;5035805;28;20087;-85
2021/06/03 03:50:17;;;;;;;0.05;0.05;;;;;;;22.99;53.20;101724.75;5050941;28;20029;-88
2021/06/03 03:52:45;;;;;;;0.05;0.05;;;;;;;22.98;53.06;101719.41;5046196;28;20025;-88
2021/06/03 03:55:13;;;;;;;0.10;0.10;;;;;;;22.97;53.06;101721.25;5039219;28;20092;-87
2021/06/03 03:57:40;;;;;;;0.10;0.10;;;;;;;22.93;53.34;101722.41;5037046;28;20040;-87
2021/06/03 04:00:10;;;;;;;0.10;0.10;;;;;;;22.89;53.37;101724.41;5036263;28;20095;-88
2021/06/03 04:02:36;;;;;;;0.22;0.20;;;;;;;22.87;53.22;101725.47;5040336;28;20026;-88
2021/06/03 04:05:04;;;;;;;0.32;0.30;;;;;;;22.85;53.42;101719.28;5039958;28;20508;-88
2021/06/03 04:07:31;;;;;;;0.15;0.15;;;;;;;22.82;53.55;101724.84;5038123;28;20428;-89
2021/06/03 04:09:58;;;;;;;0.00;0.00;;;;;;;22.77;53.41;101728.69;5036331;28;20385;-88
2021/06/03 04:12:24;;;;;;;0.10;0.10;;;;;;;22.71;53.56;101737.16;5034378;28;20095;-87
2021/06/03 04:14:50;;;;;;;0.00;0.00;;;;;;;22.73;53.20;101737.94;5042793;28;20028;-88
2021/06/03 04:17:16;;;;;;;0.10;0.10;;;;;;;22.71;53.65;101737.16;5040871;28;20036;-88
2021/06/03 04:19:43;;;;;;;0.00;0.00;;;;;;;22.73;53.47;101737.03;5038639;28;20025;-86
2021/06/03 04:22:09;;;;;;;0.10;0.10;;;;;;;22.73;53.37;101747.84;5038530;28;20033;-87
2021/06/03 04:24:35;;;;;;;0.03;0.03;;;;;;;22.74;53.51;101738.78;5046761;28;20025;-86
2021/06/03 04:27:01;;;;;;;0.10;0.10;;;;;;;22.70;53.72;101748.03;5042295;28;20033;-87
2021/06/03 04:29:28;;;;;;;0.10;0.10;;;;;;;22.73;53.55;101745.16;5039873;28;20033;-87
2021/06/03 04:31:54;;;;;;;0.35;0.35;;;;;;;22.71;53.71;101749.78;5038350;28;20688;-87
2021/06/03 04:34:20;;;;;;;0.47;0.47;;;;;;;22.72;53.76;101748.84;5019748;28;20439;-88
2021/06/03 04:36:46;;;;;;;0.20;0.20;;;;;;;22.72;54.06;101748.84;5033581;28;20025;-86
2021/06/03 04:39:13;;;;;;;0.10;0.10;;;;;;;22.75;54.18;101751.34;5041198;28;20589;-87
2021/06/03 04:41:39;;;;;;;0.03;0.03;;;;;;;22.76;53.83;101755.78;5037864;28;20053;-86
2021/06/03 04:44:05;;;;;;;0.10;0.10;;;;;;;22.77;54.12;101761.09;5036767;28;20029;-87
2021/06/03 04:46:31;;;;;;;0.10;0.10;;;;;;;22.80;53.86;101762.75;5039900;28;20576;-88
2021/06/03 04:48:57;;;;;;;0.10;0.10;;;;;;;22.78;54.23;101762.84;5048457;28;20039;-87
2021/06/03 04:51:24;;;;;;;0.05;0.05;;;;;;;22.72;54.46;101762.34;5040350;28;20026;-88
2021/06/03 04:53:50;;;;;;;0.93;0.93;;;;;;;22.80;54.05;101765.47;5038432;28;20451;-89
2021/06/03 04:56:16;;;;;;;0.00;0.00;;;;;;;22.82;54.47;101766.25;5037909;28;20048;-86
2021/06/03 04:58:42;;;;;;;0.10;0.10;;;;;;;22.84;54.19;101772.47;5039279;28;20029;-87
2021/06/03 05:01:09;;;;;;;0.30;0.30;;;;;;;22.85;54.74;101774.16;5030660;28;20096;-87
2021/06/03 05:03:35;;;;;;;0.10;0.10;;;;;;;22.86;54.87;101781.31;5033402;28;20364;-87
2021/06/03 05:06:02;;;;;;;0.03;0.03;;;;;;;22.90;54.62;101782.03;5041912;28;20425;-87
2021/06/03 05:08:28;;;;;;;0.00;0.00;;;;;;;22.91;54.43;101786.47;5041582;28;20036;-88
2021/06/03 05:10:54;;;;;;;0.40;0.40;;;;;;;22.93;54.44;101784.56;5032332;28;20465;-87
2021/06/03 05:13:20;;;;;;;1.17;0.30;;;;;;;22.96;54.64;101788.91;5021806;28;20121;-87
2021/06/03 05:15:46;;;;;;;0.13;0.13;;;;;;;23.00;54.46;101787.78;5034111;28;20753;-86
2021/06/03 05:18:12;;;;;;;0.10;0.10;;;;;;;23.01;54.45;101795.78;5036147;28;20071;-82
2021/06/03 05:20:39;;;;;;;0.05;0.05;;;;;;;23.02;54.63;101786.72;5033283;28;20560;-84
2021/06/03 05:23:05;;;;;;;0.10;0.10;;;;;;;23.05;54.79;101796.47;5036055;28;20028;-85
2021/06/03 05:25:32;;;;;;;0.55;0.55;;;;;;;23.07;54.40;101797.28;5034902;28;20021;-85
2021/06/03 05:27:59;;;;;;;0.35;0.35;;;;;;;23.12;54.16;101795.16;5032328;28;20040;-88
2021/06/03 05:30:26;;;;;;;0.13;0.13;;;;;;;23.17;54.76;101803.06;5031713;28;20116;-85
2021/06/03 05:32:52;;;;;;;0.00;0.00;;;;;;;23.17;54.90;101801.22;5032321;28;20029;-87
2021/06/03 05:35:21;;;;;;;0.10;0.10;;;;;;;23.21;54.88;101797.34;5032083;28;20049;-89
2021/06/03 05:37:48;;;;;;;0.00;0.00;;;;;;;23.22;54.72;101799.09;5030774;28;20362;-88
2021/06/03 05:40:18;;;;;;;0.03;0.03;;;;;;;23.23;54.92;101795.44;5032065;28;20021;-86
2021/06/03 05:42:46;;;;;;;0.03;0.03;;;;;;;23.25;54.83;101798.94;5032611;28;20487;-88
2021/06/03 05:45:14;;;;;;;0.20;0.20;;;;;;;23.31;54.75;101804.94;5032576;28;20030;-87
2021/06/03 05:47:40;;;;;;;0.10;0.10;;;;;;;23.31;55.10;101805.81;5031742;28;20116;-87
2021/06/03 05:50:10;;;;;;;0.10;0.10;;;;;;;23.39;54.97;101810.75;5032783;28;20040;-87
2021/06/03 05:52:37;;;;;;;0.10;0.10;;;;;;;23.39;54.70;101810.75;5029329;28;20030;-89
2021/06/03 05:55:05;;;;;;;0.40;0.40;;;;;;;23.37;54.76;101816.25;5045506;22;20093;-87
2021/06/03 05:57:31;;;;;;;0.00;0.00;;;;;;;23.41;55.02;101820.56;5014704;28;20034;-87
2021/06/03 05:59:58;;;;;;;0.43;0.43;;;;;;;23.43;55.32;101817.75;5014176;28;20435;-86
2021/06/03 06:02:31;;;;;;;0.10;0.10;;;;;;;23.45;55.31;101815.81;5014577;28;20081;-88
2021/06/03 06:07:44;;;;;;;0.45;0.32;;;;;;;23.40;55.38;101815.22;5013938;28;20038;-88
2021/06/03 06:10:10;;;;;;;0.10;0.10;;;;;;;23.38;55.69;101827.97;5014386;28;20038;-87
2021/06/03 06:12:37;;;;;;;0.13;0.13;;;;;;;23.37;55.56;101826.22;5015032;28;20041;-86
2021/06/03 06:15:04;;;;;;;0.10;0.10;;;;;;;23.34;56.10;101834.50;5014278;28;20488;-86
2021/06/03 06:17:30;;;;;;;0.08;0.08;;;;;;;23.34;56.08;101835.38;5014161;28;20514;-86
2021/06/03 06:19:57;;;;;;;0.98;0.63;;;;;;;23.39;56.29;101845.91;5014245;28;20026;-87
2021/06/03 06:22:23;;;;;;;0.40;0.40;;;;;;;23.42;55.98;101849.31;5014092;28;20026;-90
2021/06/03 06:24:49;;;;;;;0.00;0.00;;;;;;;23.37;55.85;101847.84;5012487;28;20113;-87
2021/06/03 06:27:15;;;;;;;0.00;0.00;;;;;;;23.39;55.93;101854.91;5012557;28;20192;-88
2021/06/03 06:29:42;;;;;;;0.15;0.15;;;;;;;23.37;56.27;101855.97;5012679;28;20018;-88
2021/06/03 06:32:08;;;;;;;0.08;0.08;;;;;;;23.52;55.65;101851.50;5011853;28;20030;-89
2021/06/03 06:34:34;;;;;;;0.43;0.43;;;;;;;23.54;56.21;101850.44;5011994;28;20053;-89
2021/06/03 06:37:00;;;;;;;0.08;0.08;;;;;;;23.61;55.68;101855.50;5010942;28;20037;-89
2021/06/03 06:39:27;;;;;;;0.10;0.10;;;;;;;23.67;56.17;101857.84;5002332;28;21318;-90
2021/06/03 06:41:53;;;;;;;0.32;0.32;;;;;;;23.70;55.68;101857.63;5002861;28;20095;-89
2021/06/03 06:44:19;;;;;;;0.70;0.70;;;;;;;23.87;55.47;101851.22;5001320;28;20023;-90
2021/06/03 06:46:46;;;;;;;0.20;0.20;;;;;;;23.94;55.35;101857.16;5003872;28;20029;-90
2021/06/03 06:49:12;;;;;;;0.40;0.40;;;;;;;23.98;55.34;101853.31;5006162;28;20022;-90
2021/06/03 06:51:38;;;;;;;0.10;0.10;;;;;;;24.06;55.11;101856.41;5002804;28;20034;-90
2021/06/03 06:54:05;;;;;;;0.13;0.13;;;;;;;24.05;54.97;101858.25;5005021;28;20026;-89
2021/06/03 06:56:31;;;;;;;0.00;0.00;;;;;;;24.20;54.46;101848.31;4999841;28;20026;-90
2021/06/03 06:58:57;;;;;;;0.10;0.10;;;;;;;24.10;54.91;101847.16;5011312;28;20042;-91
2021/06/03 07:01:23;;;;;;;0.10;0.10;;;;;;;24.27;54.31;101853.34;5012003;28;20031;-87
2021/06/03 07:03:51;;;;;;;0.30;0.30;;;;;;;24.24;54.40;101865.25;5012399;28;20061;-87
2021/06/03 07:06:17;;;;;;;0.45;0.45;;;;;;;24.42;54.26;101865.94;4999025;28;20029;-91
2021/06/03 07:08:43;;;;;;;0.20;0.20;;;;;;;24.47;54.83;101863.78;5012492;28;20100;-88
2021/06/03 07:11:09;;;;;;;0.00;0.00;;;;;;;24.51;53.82;101870.78;5014662;28;20124;-90
2021/06/03 07:13:36;;;;;;;0.00;0.00;;;;;;;24.68;53.79;101874.28;5014836;28;20037;-91
2021/06/03 07:16:02;;;;;;;0.30;0.30;;;;;;;24.61;53.92;101881.03;5014534;28;20037;-91
2021/06/03 07:18:28;;;;;;;0.13;0.13;;;;;;;24.78;53.97;101883.56;5008492;28;20111;-91
2021/06/03 07:20:57;;;;;;;0.55;0.55;;;;;;;24.66;53.86;101884.34;5008241;28;20096;-91
2021/06/03 07:23:23;;;;;;;0.10;0.10;;;;;;;24.76;53.46;101880.09;5012244;28;20018;-90
2021/06/03 07:25:50;;;;;;;0.13;0.13;;;;;;;24.67;53.77;101878.84;5032906;22;20042;-85
2021/06/03 07:28:16;;;;;;;0.03;0.03;;;;;;;24.60;53.50;101884.69;5014497;28;20037;-85
2021/06/03 07:30:42;;;;;;;0.03;0.03;;;;;;;24.82;53.18;101879.72;5014422;28;20575;-85
2021/06/03 07:33:08;;;;;;;0.35;0.35;;;;;;;24.99;53.25;101877.75;5017227;28;20026;-84
2021/06/03 07:35:36;;;;;;;0.08;0.08;;;;;;;25.04;52.99;101887.31;5014507;28;20030;-85
2021/06/03 07:38:03;;;;;;;0.15;0.15;;;;;;;25.18;52.63;101886.44;5009047;28;20052;-83
2021/06/03 07:40:33;;;;;;;0.00;0.00;;;;;;;25.23;52.60;101882.53;5007620;28;20040;-82
2021/06/03 07:43:00;;;;;;;0.73;0.50;;;;;;;25.19;52.54;101888.16;5012080;28;20026;-84
2021/06/03 07:45:29;;;;;;;0.65;0.65;;;;;;;25.26;52.24;101894.06;5012902;28;20041;-82
2021/06/03 07:48:03;;;;;;;0.13;0.13;;;;;;;25.55;52.80;101893.97;5014825;28;20030;-88
2021/06/03 07:50:32;;;;;;;0.20;0.20;;;;;;;25.60;52.11;101901.81;5011139;28;20484;-91
2021/06/03 07:52:59;;;;;;;0.50;0.50;;;;;;;25.57;51.81;101896.59;5012384;28;20757;-82
2021/06/03 07:55:25;;;;;;;1.15;1.05;;;;;;;25.75;51.65;101900.78;5012311;28;20010;-81
2021/06/03 07:57:56;;;;;;;0.13;0.13;;;;;;;25.89;51.24;101902.53;5012173;28;20038;-82
2021/06/03 08:00:24;;;;;;;0.13;0.13;;;;;;;25.82;51.44;101902.09;5008257;28;20026;-83
2021/06/03 08:02:51;;;;;;;0.63;0.63;;;;;;;25.49;51.85;101902.53;5011148;28;20034;-82
2021/06/03 08:05:20;;;;;;;0.20;0.20;;;;;;;25.78;51.22;101896.97;5010698;28;20117;-83
2021/06/03 08:07:47;;;;;;;0.55;0.55;;;;;;;25.67;50.96;101900.41;5011006;28;20037;-83
2021/06/03 08:10:17;;;;;;;0.40;0.40;;;;;;;25.84;50.52;101899.28;5012200;28;20076;-85
2021/06/03 08:12:44;;;;;;;0.10;0.10;;;;;;;25.84;50.61;101904.72;5007929;28;20061;-86
2021/06/03 08:15:13;;;;;;;0.10;0.10;;;;;;;25.87;50.87;101899.09;5011672;28;20064;-87
2021/06/03 08:17:40;;;;;;;0.10;0.10;;;;;;;26.11;51.13;101910.13;5011475;28;20076;-87
2021/06/03 08:20:09;;;;;;;1.10;1.00;;;;;;;26.15;50.40;101903.50;5010849;28;20029;-91
2021/06/03 08:22:36;;;;;;;0.10;0.10;;;;;;;26.11;50.48;101901.97;5012292;28;20026;-86
2021/06/03 08:25:04;;;;;;;0.13;0.13;;;;;;;26.37;49.84;101902.00;5011687;28;20026;-86
2021/06/03 08:27:31;;;;;;;0.68;0.68;;;;;;;26.47;49.90;101902.22;5011723;28;20030;-86
2021/06/03 08:29:57;;;;;;;0.10;0.10;;;;;;;26.50;49.44;101912.00;5012077;28;20030;-88
2021/06/03 08:32:23;;;;;;;0.30;0.30;;;;;;;26.54;49.04;101906.22;5010625;28;20050;-87
2021/06/03 08:34:49;;;;;;;2.58;1.33;;;;;;;26.61;49.54;101912.09;5010322;28;20069;-86
2021/06/03 08:37:15;;;;;;;2.75;1.15;;;;;;;26.38;49.96;101911.91;5011997;28;20109;-85
2021/06/03 08:39:42;;;;;;;0.20;0.20;;;;;;;26.76;49.69;101902.88;5008975;28;20026;-86
2021/06/03 08:42:09;;;;;;;0.32;0.32;;;;;;;26.80;49.04;101908.97;4998941;28;20541;-89
2021/06/03 08:44:36;;;;;;;0.15;0.15;;;;;;;26.85;48.92;101905.91;5010398;28;20049;-82
2021/06/03 08:47:03;;;;;;;0.30;0.30;;;;;;;27.00;49.12;101902.06;5011307;28;20014;-84
2021/06/03 08:49:30;;;;;;;0.00;0.00;;;;;;;26.94;49.15;101914.28;5011857;28;20029;-83
2021/06/03 08:52:03;;;;;;;0.55;0.55;;;;;;;27.00;48.28;101915.66;5011770;28;20069;-84
2021/06/03 08:54:32;;;;;;;0.25;0.25;;;;;;;27.13;48.11;101912.94;5010979;28;20033;-84
2021/06/03 08:56:59;;;;;;;0.22;0.22;;;;;;;26.98;48.61;101912.22;5081719;23;20048;-89
2021/06/03 08:59:25;;;;;;;0.70;0.70;;;;;;;27.13;48.43;101921.09;5030116;28;20037;-89
2021/06/03 09:01:51;;;;;;;0.40;0.40;;;;;;;27.16;48.42;101922.72;5032498;28;20021;-87
2021/06/03 09:04:21;;;;;;;0.55;0.55;;;;;;;27.22;48.40;101920.41;5031899;28;20049;-88
2021/06/03 09:06:50;;;;;;;0.85;0.65;;;;;;;27.43;48.25;101917.97;5019819;28;20441;-87
2021/06/03 09:09:25;;;;;;;0.10;0.10;;;;;;;27.22;48.58;101928.56;4998964;28;20029;-87
2021/06/03 09:12:13;;;;;;;0.15;0.15;;;;;;;27.42;47.90;101924.38;5011816;28;20037;-87
2021/06/03 09:14:41;;;;;;;2.75;1.08;;;;;;;27.48;47.82;101925.78;5019040;28;20018;-87
2021/06/03 09:17:10;;;;;;;0.65;0.65;;;;;;;27.66;47.51;101928.97;5028946;28;20038;-87
2021/06/03 09:19:52;;;;;;;0.63;0.63;;;;;;;27.65;46.49;101932.66;5012364;28;20049;-87
2021/06/03 09:22:38;;;;;;;;;;;;;;;27.66;46.43;101937.13;5008546;28;20037;-87
2021/06/03 09:25:32;;;;;;;0.10;0.10;;;;;;;27.58;46.68;101928.69;5011986;28;19914;-87
2021/06/03 09:28:24;;;;;;;0.00;0.00;;;;;;;27.80;46.75;101927.91;5011574;28;20026;-88
2021/06/03 09:30:55;;;;;;;0.30;0.30;;;;;;;27.87;47.16;101925.59;5011595;28;20085;-88
2021/06/03 09:33:39;;;;;;;0.30;0.30;;;;;;;27.83;46.42;101929.56;5011735;28;20174;-87
2021/06/03 09:36:06;;;;;;;0.08;0.08;;;;;;;28.00;46.44;101926.41;5011912;28;20042;-87
2021/06/03 09:38:33;;;;;;;0.00;0.00;;;;;;;28.02;46.72;101935.31;5018115;28;20112;-87
2021/06/03 09:41:00;;;;;;;0.20;0.20;;;;;;;27.91;46.44;101932.53;5017314;28;20065;-86
2021/06/03 09:43:26;;;;;;;0.10;0.10;;;;;;;28.17;46.64;101927.81;5011782;28;20026;-86
2021/06/03 09:45:58;;;;;;;0.30;0.30;;;;;;;28.44;46.13;101929.38;5021524;28;20029;-86
2021/06/03 09:48:42;;;;;;;0.20;0.20;;;;;;;28.36;45.60;101926.38;5012046;28;20072;-86
2021/06/03 09:51:22;;;;;;;0.10;0.10;;;;;;;28.47;45.25;101931.84;5005933;28;20116;-87
2021/06/03 09:53:53;;;;;;;1.02;1.02;;;;;;;28.64;45.33;101919.63;4999868;28;20038;-87
2021/06/03 09:56:21;;;;;;;0.00;0.00;;;;;;;28.79;46.17;101935.78;5010823;28;20030;-87
2021/06/03 09:58:47;;;;;;;0.20;0.20;;;;;;;28.93;45.67;101934.66;5011674;28;20570;-87
2021/06/03 10:01:14;;;;;;;1.38;1.23;;;;;;;29.00;44.65;101947.66;5010180;28;20477;-87
2021/06/03 10:03:55;;;;;;;0.10;0.10;;;;;;;29.16;43.71;101940.94;5011285;28;20113;-88
2021/06/03 10:06:21;;;;;;;0.25;0.25;;;;;;;29.10;43.92;101935.97;5010976;28;20128;-87
2021/06/03 10:08:48;;;;;;;0.10;0.10;;;;;;;28.88;44.13;101940.47;5012264;28;20481;-87
2021/06/03 10:11:42;;;;;;;0.28;0.28;;;;;;;29.33;44.89;101943.16;5009703;28;20036;-87
2021/06/03 10:14:11;;;;;;;1.65;0.70;;;;;;;29.07;42.97;101936.25;5010155;28;20034;-87
2021/06/03 10:16:37;;;;;;;0.05;0.05;;;;;;;29.35;43.69;101946.66;5011417;28;20022;-87
2021/06/03 10:19:21;;;;;;;0.20;0.20;;;;;;;29.60;44.31;101944.59;5011596;28;20064;-86
2021/06/03 10:22:11;;;;;;;0.77;0.50;;;;;;;29.70;43.49;101948.28;5009570;28;20073;-87
2021/06/03 10:27:32;;;;;;;0.20;0.20;;;;;;;29.49;42.38;101952.84;5049061;28;20041;-85
2021/06/03 10:30:00;;;;;;;0.20;0.20;;;;;;;29.40;42.61;101950.84;5051185;28;20111;-85
2021/06/03 10:32:29;;;;;;;1.27;1.27;;;;;;;29.54;41.71;101950.59;5049944;28;20033;-83
2021/06/03 10:34:57;;;;;;;0.50;0.50;;;;;;;29.51;42.54;101951.72;5048963;28;20040;-84
2021/06/03 10:37:25;;;;;;;2.72;1.13;;;;;;;29.38;42.56;101951.00;5050195;28;20021;-85
2021/06/03 10:39:55;;;;;;;0.10;0.10;;;;;;;29.48;42.43;101948.38;5036324;28;20380;-85
2021/06/03 10:42:22;;;;;;;0.13;0.13;;;;;;;29.65;42.18;101953.28;5053181;28;20031;-87
2021/06/03 10:44:49;;;;;;;0.00;0.00;;;;;;;29.70;41.83;101945.56;5052603;28;20035;-84
2021/06/03 10:47:16;;;;;;;0.32;0.32;;;;;;;29.94;43.11;101952.69;5054717;28;20051;-84
2021/06/03 10:49:44;;;;;;;0.10;0.10;;;;;;;30.13;41.41;101956.59;5053374;28;20112;-85
2021/06/03 10:52:12;;;;;;;0.13;0.13;;;;;;;30.02;41.07;101955.66;5055236;28;20059;-84
2021/06/03 10:57:53;;;;;;;0.30;0.30;;;;;;;30.21;42.21;101955.91;5120124;27;20214;-82
2021/06/03 11:03:07;;;;;;;2.13;0.25;;;;;;;30.23;41.81;101945.72;5085551;28;20190;-82
2021/06/03 11:05:38;;;;;;;1.38;0.50;;;;;;;30.47;41.20;101946.31;5051443;28;20031;-86
2021/06/03 11:08:25;;;;;;;0.15;0.10;;;;;;;30.64;41.03;101944.88;5050086;28;20025;-86
2021/06/03 11:10:52;;;;;;;1.45;0.63;;;;;;;30.50;40.54;101950.69;5049671;28;20037;-86
2021/06/03 11:13:21;;;;;;;1.73;0.43;;;;;;;30.21;40.78;101948.59;5053171;28;20021;-86
2021/06/03 11:16:09;;;;;;;0.25;0.25;;;;;;;30.31;40.76;101949.53;5061623;28;20027;-87
2021/06/03 11:27:09;;;;;;;0.45;0.45;;;;;;;30.87;40.26;101954.75;5062090;27;20172;-86
2021/06/03 11:29:40;;;;;;;0.50;0.50;;;;;;;30.71;39.86;101947.06;5048354;28;20037;-87
2021/06/03 11:34:46;;;;;;;0.10;0.10;;;;;;;30.26;39.75;101954.53;5121154;27;20160;-89
2021/06/03 11:37:17;;;;;;;0.45;0.45;;;;;;;30.16;40.24;101953.59;5110214;28;20032;-94
2021/06/03 11:48:31;;;;;;;1.08;0.73;;;;;;;29.39;41.19;101962.78;5075109;27;20164;-87
2021/06/03 11:51:04;;;;;;;0.20;0.20;;;;;;;29.32;41.13;101960.56;5068585;28;20029;-88
2021/06/03 11:53:32;;;;;;;3.72;0.63;;;;;;;29.17;41.72;101956.31;5066828;28;20467;-87
2021/06/03 11:56:14;;;;;;;0.10;0.10;;;;;;;29.38;41.85;101961.91;5084526;22;20518;-87
2021/06/03 12:06:51;;;;;;;0.20;0.20;;;;;;;29.54;40.44;101956.03;5087775;27;20565;-86
2021/06/03 12:12:07;;;;;;;4.10;0.88;;;;;;;29.53;41.05;101967.94;5087707;27;20154;-87
2021/06/03 12:14:48;;;;;;;0.17;0.17;;;;;;;29.61;40.77;101962.72;5088008;28;20017;-86
2021/06/03 12:17:14;;;;;;;1.67;1.60;;;;;;;29.29;41.79;101968.16;5068894;28;20098;-85
2021/06/03 12:19:46;;;;;;;0.47;0.47;;;;;;;29.46;41.72;101964.88;5059322;28;20029;-86
2021/06/03 12:22:15;;;;;;;0.05;0.05;;;;;;;29.43;41.92;101972.47;5054485;28;20040;-86
2021/06/03 12:27:28;;;;;;;4.15;2.15;;;;;;;29.37;41.42;101958.31;5114832;27;20144;-86
2021/06/03 12:30:08;;;;;;;0.65;0.65;;;;;;;29.54;41.07;101961.50;5079153;28;20031;-86